CheckWX is a tool to help pilots better visualize weather data.  It is not intended as a substitute for an official pre-flight weather briefing.

22:22:45 UTC

KPYM METAR
Plymouth Municipal Airport
Plymouth, Massachusetts, USA
Current

31 mins ago

KPYM 212152Z AUTO 00000KT 10SM CLR 03/01 A3008 RMK AO2 SLP188 T00330006
Observed
Nov-21 @ 21:52 UTC
Visibility
10 SM
Flight Rules
VFR
Cloud Levels
  • Clear skies
Temperature
C / 37°F
Dewpoint
C / 34°F
Humidity
87%
Altimeter
30.08" Hg
Pressure
1018.62 hPa
Previous

2 hours ago

KPYM 212052Z AUTO 11003KT 10SM CLR 06/01 A3007 RMK AO2 SLP185 T00610006 55002
Observed
Nov-21 @ 20:52 UTC
Wind
  • 110° at 3 KTS
Visibility
10 SM
Flight Rules
VFR
Cloud Levels
  • Clear skies
Temperature
C / 43°F
Dewpoint
C / 34°F
Humidity
71%
Altimeter
30.07" Hg
Pressure
1018.32 hPa
Previous

3 hours ago

KPYM 211952Z AUTO 08004KT 10SM CLR 08/01 A3007 RMK AO2 SLP183 T00830006
Observed
Nov-21 @ 19:52 UTC
Wind
  • 080° at 4 KTS
Visibility
10 SM
Flight Rules
VFR
Cloud Levels
  • Clear skies
Temperature
C / 46°F
Dewpoint
C / 34°F
Humidity
62%
Altimeter
30.07" Hg
Pressure
1018.32 hPa